sensor_id;sensor_type;location;lat;lon;timestamp;P1;durP1;ratioP1;P2;durP2;ratioP2
63902;SDS011;50072;50.678;13.938;2023-09-19T00:01:14;11.35;;;4.80;;
63902;SDS011;50072;50.678;13.938;2023-09-19T00:03:46;19.38;;;10.35;;
63902;SDS011;50072;50.678;13.938;2023-09-19T00:06:14;23.60;;;14.20;;
63902;SDS011;50072;50.678;13.938;2023-09-19T00:08:46;25.25;;;13.43;;
63902;SDS011;50072;50.678;13.938;2023-09-19T00:11:14;18.30;;;10.85;;
63902;SDS011;50072;50.678;13.938;2023-09-19T00:13:44;19.67;;;10.68;;
63902;SDS011;50072;50.678;13.938;2023-09-19T00:16:20;17.98;;;10.43;;
63902;SDS011;50072;50.678;13.938;2023-09-19T00:21:19;19.98;;;10.93;;
63902;SDS011;50072;50.678;13.938;2023-09-19T00:23:51;15.63;;;9.35;;
63902;SDS011;50072;50.678;13.938;2023-09-19T00:26:25;12.38;;;6.50;;
63902;SDS011;50072;50.678;13.938;2023-09-19T00:28:57;9.10;;;5.30;;
63902;SDS011;50072;50.678;13.938;2023-09-19T00:31:32;8.27;;;4.53;;
63902;SDS011;50072;50.678;13.938;2023-09-19T00:34:10;13.13;;;4.65;;
63902;SDS011;50072;50.678;13.938;2023-09-19T00:36:39;11.55;;;4.57;;
63902;SDS011;50072;50.678;13.938;2023-09-19T00:39:14;12.82;;;4.88;;
63902;SDS011;50072;50.678;13.938;2023-09-19T00:41:41;10.20;;;5.50;;
63902;SDS011;50072;50.678;13.938;2023-09-19T00:44:14;9.15;;;5.00;;
63902;SDS011;50072;50.678;13.938;2023-09-19T00:46:42;10.23;;;4.97;;
63902;SDS011;50072;50.678;13.938;2023-09-19T00:49:11;10.45;;;5.63;;
63902;SDS011;50072;50.678;13.938;2023-09-19T00:51:44;10.85;;;6.22;;
63902;SDS011;50072;50.678;13.938;2023-09-19T00:54:14;11.80;;;5.22;;
63902;SDS011;50072;50.678;13.938;2023-09-19T00:56:52;12.02;;;5.68;;
63902;SDS011;50072;50.678;13.938;2023-09-19T00:59:22;11.32;;;5.80;;
63902;SDS011;50072;50.678;13.938;2023-09-19T01:01:54;9.70;;;6.10;;
63902;SDS011;50072;50.678;13.938;2023-09-19T01:04:29;11.27;;;4.78;;
63902;SDS011;50072;50.678;13.938;2023-09-19T01:07:14;8.50;;;5.07;;
63902;SDS011;50072;50.678;13.938;2023-09-19T01:09:44;9.77;;;4.75;;
63902;SDS011;50072;50.678;13.938;2023-09-19T01:14:57;10.38;;;5.00;;
63902;SDS011;50072;50.678;13.938;2023-09-19T01:17:37;11.52;;;4.88;;
63902;SDS011;50072;50.678;13.938;2023-09-19T01:31:33;12.38;;;5.35;;
63902;SDS011;50072;50.678;13.938;2023-09-19T01:34:14;10.02;;;4.68;;
63902;SDS011;50072;50.678;13.938;2023-09-19T01:36:39;9.75;;;4.70;;
63902;SDS011;50072;50.678;13.938;2023-09-19T01:39:07;9.25;;;5.13;;
63902;SDS011;50072;50.678;13.938;2023-09-19T01:47:48;9.00;;;4.82;;
63902;SDS011;50072;50.678;13.938;2023-09-19T01:53:15;9.75;;;4.68;;
63902;SDS011;50072;50.678;13.938;2023-09-19T01:55:51;7.22;;;4.10;;
63902;SDS011;50072;50.678;13.938;2023-09-19T01:58:41;8.77;;;4.60;;
63902;SDS011;50072;50.678;13.938;2023-09-19T02:01:18;8.07;;;4.80;;
63902;SDS011;50072;50.678;13.938;2023-09-19T02:03:51;10.95;;;4.30;;
63902;SDS011;50072;50.678;13.938;2023-09-19T02:06:24;7.82;;;4.10;;
63902;SDS011;50072;50.678;13.938;2023-09-19T02:16:26;7.28;;;3.90;;
63902;SDS011;50072;50.678;13.938;2023-09-19T02:21:46;9.43;;;3.90;;
63902;SDS011;50072;50.678;13.938;2023-09-19T02:24:14;6.32;;;4.13;;
63902;SDS011;50072;50.678;13.938;2023-09-19T02:26:41;7.75;;;4.15;;
63902;SDS011;50072;50.678;13.938;2023-09-19T02:29:15;7.63;;;4.45;;
63902;SDS011;50072;50.678;13.938;2023-09-19T02:31:43;9.60;;;4.55;;
63902;SDS011;50072;50.678;13.938;2023-09-19T02:34:14;8.98;;;4.22;;
63902;SDS011;50072;50.678;13.938;2023-09-19T02:36:42;10.63;;;4.53;;
63902;SDS011;50072;50.678;13.938;2023-09-19T02:39:09;7.45;;;4.20;;
63902;SDS011;50072;50.678;13.938;2023-09-19T02:41:44;9.77;;;4.45;;
63902;SDS011;50072;50.678;13.938;2023-09-19T02:44:15;8.05;;;4.05;;
63902;SDS011;50072;50.678;13.938;2023-09-19T02:46:41;6.75;;;3.78;;
63902;SDS011;50072;50.678;13.938;2023-09-19T02:49:14;7.05;;;4.22;;
63902;SDS011;50072;50.678;13.938;2023-09-19T02:54:14;10.57;;;4.60;;
63902;SDS011;50072;50.678;13.938;2023-09-19T02:56:41;7.57;;;4.05;;
63902;SDS011;50072;50.678;13.938;2023-09-19T02:59:14;8.68;;;4.53;;
63902;SDS011;50072;50.678;13.938;2023-09-19T03:01:42;7.72;;;4.70;;
63902;SDS011;50072;50.678;13.938;2023-09-19T03:04:08;13.18;;;4.47;;
63902;SDS011;50072;50.678;13.938;2023-09-19T03:06:38;7.05;;;4.18;;
63902;SDS011;50072;50.678;13.938;2023-09-19T03:14:14;7.28;;;4.50;;
63902;SDS011;50072;50.678;13.938;2023-09-19T03:16:47;8.48;;;4.68;;
63902;SDS011;50072;50.678;13.938;2023-09-19T03:19:14;9.38;;;4.43;;
63902;SDS011;50072;50.678;13.938;2023-09-19T03:21:46;8.40;;;4.38;;
63902;SDS011;50072;50.678;13.938;2023-09-19T03:24:14;9.48;;;4.80;;
63902;SDS011;50072;50.678;13.938;2023-09-19T03:26:44;7.95;;;4.50;;
63902;SDS011;50072;50.678;13.938;2023-09-19T03:31:41;7.05;;;3.80;;
63902;SDS011;50072;50.678;13.938;2023-09-19T03:34:14;12.07;;;4.05;;
63902;SDS011;50072;50.678;13.938;2023-09-19T03:36:40;10.38;;;4.15;;
63902;SDS011;50072;50.678;13.938;2023-09-19T03:39:06;7.75;;;4.35;;
63902;SDS011;50072;50.678;13.938;2023-09-19T03:44:14;8.95;;;4.40;;
63902;SDS011;50072;50.678;13.938;2023-09-19T03:46:40;10.02;;;4.70;;
63902;SDS011;50072;50.678;13.938;2023-09-19T03:49:06;8.90;;;5.03;;
63902;SDS011;50072;50.678;13.938;2023-09-19T03:51:38;11.80;;;4.88;;
63902;SDS011;50072;50.678;13.938;2023-09-19T03:54:14;11.90;;;5.10;;
63902;SDS011;50072;50.678;13.938;2023-09-19T03:56:44;11.07;;;4.78;;
63902;SDS011;50072;50.678;13.938;2023-09-19T03:59:16;8.85;;;4.40;;
63902;SDS011;50072;50.678;13.938;2023-09-19T04:01:42;10.93;;;5.05;;
63902;SDS011;50072;50.678;13.938;2023-09-19T04:04:08;10.35;;;4.72;;
63902;SDS011;50072;50.678;13.938;2023-09-19T04:06:34;11.88;;;4.80;;
63902;SDS011;50072;50.678;13.938;2023-09-19T04:09:02;11.23;;;4.63;;
63902;SDS011;50072;50.678;13.938;2023-09-19T04:11:29;9.88;;;5.10;;
63902;SDS011;50072;50.678;13.938;2023-09-19T04:13:56;10.32;;;4.72;;
63902;SDS011;50072;50.678;13.938;2023-09-19T04:16:22;10.02;;;4.82;;
63902;SDS011;50072;50.678;13.938;2023-09-19T04:18:48;12.13;;;5.40;;
63902;SDS011;50072;50.678;13.938;2023-09-19T04:21:14;8.35;;;4.35;;
63902;SDS011;50072;50.678;13.938;2023-09-19T04:23:39;8.43;;;4.10;;
63902;SDS011;50072;50.678;13.938;2023-09-19T04:26:05;12.38;;;4.90;;
63902;SDS011;50072;50.678;13.938;2023-09-19T04:28:32;7.28;;;4.43;;
63902;SDS011;50072;50.678;13.938;2023-09-19T04:31:00;7.80;;;3.85;;
63902;SDS011;50072;50.678;13.938;2023-09-19T04:33:27;10.98;;;4.75;;
63902;SDS011;50072;50.678;13.938;2023-09-19T04:35:53;8.75;;;4.53;;
63902;SDS011;50072;50.678;13.938;2023-09-19T04:38:19;10.02;;;4.00;;
63902;SDS011;50072;50.678;13.938;2023-09-19T04:40:45;6.25;;;4.03;;
63902;SDS011;50072;50.678;13.938;2023-09-19T04:43:11;7.45;;;4.47;;
63902;SDS011;50072;50.678;13.938;2023-09-19T04:45:38;6.90;;;4.40;;
63902;SDS011;50072;50.678;13.938;2023-09-19T04:48:06;6.85;;;4.30;;
63902;SDS011;50072;50.678;13.938;2023-09-19T04:50:36;11.60;;;4.50;;
63902;SDS011;50072;50.678;13.938;2023-09-19T04:53:02;11.23;;;4.22;;
63902;SDS011;50072;50.678;13.938;2023-09-19T04:55:30;11.18;;;4.65;;
63902;SDS011;50072;50.678;13.938;2023-09-19T04:58:00;21.50;;;5.07;;
63902;SDS011;50072;50.678;13.938;2023-09-19T05:00:26;9.60;;;4.57;;
63902;SDS011;50072;50.678;13.938;2023-09-19T05:02:56;13.32;;;5.40;;
63902;SDS011;50072;50.678;13.938;2023-09-19T05:05:29;10.65;;;5.25;;
63902;SDS011;50072;50.678;13.938;2023-09-19T05:08:06;8.85;;;5.50;;
63902;SDS011;50072;50.678;13.938;2023-09-19T05:10:34;10.05;;;5.53;;
63902;SDS011;50072;50.678;13.938;2023-09-19T05:13:09;11.43;;;5.78;;
63902;SDS011;50072;50.678;13.938;2023-09-19T05:18:09;13.32;;;6.82;;
63902;SDS011;50072;50.678;13.938;2023-09-19T05:20:44;13.75;;;5.60;;
63902;SDS011;50072;50.678;13.938;2023-09-19T05:25:44;11.05;;;5.53;;
63902;SDS011;50072;50.678;13.938;2023-09-19T05:30:44;12.83;;;6.43;;
63902;SDS011;50072;50.678;13.938;2023-09-19T05:33:15;12.65;;;6.32;;
63902;SDS011;50072;50.678;13.938;2023-09-19T05:35:44;13.90;;;6.90;;
63902;SDS011;50072;50.678;13.938;2023-09-19T05:38:14;13.55;;;7.47;;
63902;SDS011;50072;50.678;13.938;2023-09-19T05:40:44;17.80;;;8.30;;
63902;SDS011;50072;50.678;13.938;2023-09-19T05:43:11;14.93;;;7.82;;
63902;SDS011;50072;50.678;13.938;2023-09-19T05:45:39;16.90;;;8.70;;
63902;SDS011;50072;50.678;13.938;2023-09-19T05:48:13;20.20;;;10.60;;
63902;SDS011;50072;50.678;13.938;2023-09-19T05:50:42;24.55;;;11.80;;
63902;SDS011;50072;50.678;13.938;2023-09-19T05:53:09;24.55;;;11.90;;
63902;SDS011;50072;50.678;13.938;2023-09-19T05:55:38;23.70;;;12.20;;
63902;SDS011;50072;50.678;13.938;2023-09-19T05:58:06;26.52;;;12.85;;
63902;SDS011;50072;50.678;13.938;2023-09-19T06:00:33;27.58;;;12.93;;
63902;SDS011;50072;50.678;13.938;2023-09-19T06:02:59;24.52;;;13.32;;
63902;SDS011;50072;50.678;13.938;2023-09-19T06:05:28;25.02;;;13.30;;
63902;SDS011;50072;50.678;13.938;2023-09-19T06:07:57;24.93;;;13.00;;
63902;SDS011;50072;50.678;13.938;2023-09-19T06:10:27;28.80;;;12.80;;
63902;SDS011;50072;50.678;13.938;2023-09-19T06:12:54;25.63;;;13.73;;
63902;SDS011;50072;50.678;13.938;2023-09-19T06:15:22;27.90;;;14.18;;
63902;SDS011;50072;50.678;13.938;2023-09-19T06:17:52;25.05;;;13.35;;
63902;SDS011;50072;50.678;13.938;2023-09-19T06:20:23;22.02;;;11.90;;
63902;SDS011;50072;50.678;13.938;2023-09-19T06:22:50;22.73;;;12.18;;
63902;SDS011;50072;50.678;13.938;2023-09-19T06:25:18;23.60;;;11.85;;
63902;SDS011;50072;50.678;13.938;2023-09-19T06:27:50;24.67;;;11.82;;
63902;SDS011;50072;50.678;13.938;2023-09-19T06:30:21;26.08;;;13.23;;
63902;SDS011;50072;50.678;13.938;2023-09-19T06:32:49;25.23;;;12.40;;
63902;SDS011;50072;50.678;13.938;2023-09-19T06:35:21;22.13;;;12.75;;
63902;SDS011;50072;50.678;13.938;2023-09-19T06:37:48;28.38;;;13.13;;
63902;SDS011;50072;50.678;13.938;2023-09-19T06:40:15;27.67;;;12.32;;
63902;SDS011;50072;50.678;13.938;2023-09-19T06:45:13;25.52;;;13.32;;
63902;SDS011;50072;50.678;13.938;2023-09-19T06:50:11;22.63;;;11.40;;
63902;SDS011;50072;50.678;13.938;2023-09-19T06:52:40;23.75;;;12.27;;
63902;SDS011;50072;50.678;13.938;2023-09-19T06:55:08;24.83;;;10.98;;
63902;SDS011;50072;50.678;13.938;2023-09-19T06:57:37;23.77;;;11.13;;
63902;SDS011;50072;50.678;13.938;2023-09-19T07:00:04;20.98;;;11.50;;
63902;SDS011;50072;50.678;13.938;2023-09-19T07:02:35;22.30;;;11.50;;
63902;SDS011;50072;50.678;13.938;2023-09-19T07:05:01;23.05;;;12.10;;
63902;SDS011;50072;50.678;13.938;2023-09-19T07:07:27;16.55;;;10.20;;
63902;SDS011;50072;50.678;13.938;2023-09-19T07:09:53;22.88;;;11.27;;
63902;SDS011;50072;50.678;13.938;2023-09-19T07:12:19;22.85;;;11.60;;
63902;SDS011;50072;50.678;13.938;2023-09-19T07:14:45;25.88;;;10.70;;
63902;SDS011;50072;50.678;13.938;2023-09-19T07:17:11;20.25;;;10.23;;
63902;SDS011;50072;50.678;13.938;2023-09-19T07:19:37;23.88;;;11.35;;
63902;SDS011;50072;50.678;13.938;2023-09-19T07:22:02;20.48;;;11.60;;
63902;SDS011;50072;50.678;13.938;2023-09-19T07:24:28;21.45;;;11.32;;
63902;SDS011;50072;50.678;13.938;2023-09-19T07:26:56;19.98;;;10.70;;
63902;SDS011;50072;50.678;13.938;2023-09-19T07:29:23;21.35;;;10.02;;
63902;SDS011;50072;50.678;13.938;2023-09-19T07:31:50;18.58;;;10.13;;
63902;SDS011;50072;50.678;13.938;2023-09-19T07:34:16;15.95;;;9.23;;
63902;SDS011;50072;50.678;13.938;2023-09-19T07:36:43;14.60;;;8.90;;
63902;SDS011;50072;50.678;13.938;2023-09-19T07:39:09;17.38;;;9.27;;
63902;SDS011;50072;50.678;13.938;2023-09-19T07:41:35;16.75;;;9.45;;
63902;SDS011;50072;50.678;13.938;2023-09-19T07:44:01;13.55;;;8.18;;
63902;SDS011;50072;50.678;13.938;2023-09-19T07:46:33;14.65;;;8.15;;
63902;SDS011;50072;50.678;13.938;2023-09-19T07:49:14;15.77;;;9.35;;
63902;SDS011;50072;50.678;13.938;2023-09-19T07:51:44;14.13;;;8.23;;
63902;SDS011;50072;50.678;13.938;2023-09-19T07:54:13;14.73;;;8.10;;
63902;SDS011;50072;50.678;13.938;2023-09-19T07:56:43;19.63;;;9.50;;
63902;SDS011;50072;50.678;13.938;2023-09-19T07:59:16;15.75;;;9.75;;
63902;SDS011;50072;50.678;13.938;2023-09-19T08:01:42;16.20;;;9.48;;
63902;SDS011;50072;50.678;13.938;2023-09-19T08:04:09;21.02;;;8.82;;
63902;SDS011;50072;50.678;13.938;2023-09-19T08:06:35;13.15;;;8.02;;
63902;SDS011;50072;50.678;13.938;2023-09-19T08:09:01;12.20;;;7.75;;
63902;SDS011;50072;50.678;13.938;2023-09-19T08:11:32;13.73;;;8.27;;
63902;SDS011;50072;50.678;13.938;2023-09-19T08:14:00;16.23;;;8.88;;
63902;SDS011;50072;50.678;13.938;2023-09-19T08:16:26;11.40;;;6.10;;
63902;SDS011;50072;50.678;13.938;2023-09-19T08:18:52;11.90;;;6.85;;
63902;SDS011;50072;50.678;13.938;2023-09-19T08:21:21;11.73;;;5.97;;
63902;SDS011;50072;50.678;13.938;2023-09-19T08:23:50;10.77;;;6.85;;
63902;SDS011;50072;50.678;13.938;2023-09-19T08:26:16;7.68;;;4.70;;
63902;SDS011;50072;50.678;13.938;2023-09-19T08:28:43;9.57;;;4.18;;
63902;SDS011;50072;50.678;13.938;2023-09-19T08:31:09;5.57;;;3.47;;
63902;SDS011;50072;50.678;13.938;2023-09-19T08:33:36;7.78;;;3.75;;
63902;SDS011;50072;50.678;13.938;2023-09-19T08:36:03;8.43;;;4.32;;
63902;SDS011;50072;50.678;13.938;2023-09-19T08:38:34;6.85;;;3.88;;
63902;SDS011;50072;50.678;13.938;2023-09-19T08:41:01;8.27;;;4.05;;
63902;SDS011;50072;50.678;13.938;2023-09-19T08:43:32;8.50;;;4.22;;
63902;SDS011;50072;50.678;13.938;2023-09-19T08:46:09;7.40;;;4.05;;
63902;SDS011;50072;50.678;13.938;2023-09-19T08:48:45;9.52;;;3.88;;
63902;SDS011;50072;50.678;13.938;2023-09-19T08:51:18;7.22;;;3.70;;
63902;SDS011;50072;50.678;13.938;2023-09-19T08:56:32;7.60;;;3.97;;
63902;SDS011;50072;50.678;13.938;2023-09-19T08:59:00;7.68;;;4.03;;
63902;SDS011;50072;50.678;13.938;2023-09-19T09:01:29;6.15;;;3.35;;
63902;SDS011;50072;50.678;13.938;2023-09-19T09:03:58;6.93;;;3.15;;
63902;SDS011;50072;50.678;13.938;2023-09-19T09:06:25;7.47;;;4.15;;
63902;SDS011;50072;50.678;13.938;2023-09-19T09:08:54;8.52;;;3.08;;
63902;SDS011;50072;50.678;13.938;2023-09-19T09:11:20;3.70;;;1.50;;
63902;SDS011;50072;50.678;13.938;2023-09-19T09:13:47;3.83;;;1.88;;
63902;SDS011;50072;50.678;13.938;2023-09-19T09:16:13;5.03;;;1.77;;
63902;SDS011;50072;50.678;13.938;2023-09-19T09:18:47;5.90;;;2.00;;
63902;SDS011;50072;50.678;13.938;2023-09-19T09:21:20;3.50;;;1.75;;
63902;SDS011;50072;50.678;13.938;2023-09-19T09:23:48;4.60;;;1.85;;
63902;SDS011;50072;50.678;13.938;2023-09-19T09:26:17;5.43;;;1.77;;
63902;SDS011;50072;50.678;13.938;2023-09-19T09:29:03;3.85;;;1.60;;
63902;SDS011;50072;50.678;13.938;2023-09-19T09:31:30;3.40;;;1.50;;
63902;SDS011;50072;50.678;13.938;2023-09-19T09:33:58;3.50;;;1.60;;
63902;SDS011;50072;50.678;13.938;2023-09-19T09:36:34;4.78;;;2.17;;
63902;SDS011;50072;50.678;13.938;2023-09-19T09:39:02;4.47;;;2.00;;
63902;SDS011;50072;50.678;13.938;2023-09-19T09:41:50;5.03;;;2.05;;
63902;SDS011;50072;50.678;13.938;2023-09-19T09:44:18;4.03;;;1.90;;
63902;SDS011;50072;50.678;13.938;2023-09-19T09:46:45;2.72;;;1.52;;
63902;SDS011;50072;50.678;13.938;2023-09-19T09:49:25;3.97;;;2.00;;
63902;SDS011;50072;50.678;13.938;2023-09-19T09:52:01;4.63;;;1.75;;
63902;SDS011;50072;50.678;13.938;2023-09-19T09:54:33;4.53;;;1.80;;
63902;SDS011;50072;50.678;13.938;2023-09-19T09:59:46;3.15;;;1.67;;
63902;SDS011;50072;50.678;13.938;2023-09-19T10:05:17;3.95;;;1.70;;
63902;SDS011;50072;50.678;13.938;2023-09-19T10:07:57;3.72;;;1.80;;
63902;SDS011;50072;50.678;13.938;2023-09-19T10:13:25;6.83;;;1.70;;
63902;SDS011;50072;50.678;13.938;2023-09-19T10:15:55;2.60;;;1.27;;
63902;SDS011;50072;50.678;13.938;2023-09-19T10:18:24;2.63;;;1.40;;
63902;SDS011;50072;50.678;13.938;2023-09-19T10:20:52;3.53;;;1.50;;
63902;SDS011;50072;50.678;13.938;2023-09-19T10:23:19;3.50;;;1.67;;
63902;SDS011;50072;50.678;13.938;2023-09-19T10:25:50;3.90;;;1.55;;
63902;SDS011;50072;50.678;13.938;2023-09-19T10:28:22;2.28;;;1.27;;
63902;SDS011;50072;50.678;13.938;2023-09-19T10:30:53;1.98;;;1.00;;
63902;SDS011;50072;50.678;13.938;2023-09-19T10:33:21;2.33;;;0.95;;
63902;SDS011;50072;50.678;13.938;2023-09-19T10:35:56;1.90;;;0.90;;
63902;SDS011;50072;50.678;13.938;2023-09-19T10:38:26;4.13;;;1.15;;
63902;SDS011;50072;50.678;13.938;2023-09-19T10:40:56;2.28;;;0.90;;
63902;SDS011;50072;50.678;13.938;2023-09-19T10:43:26;2.28;;;1.00;;
63902;SDS011;50072;50.678;13.938;2023-09-19T10:45:57;3.65;;;1.10;;
63902;SDS011;50072;50.678;13.938;2023-09-19T10:48:29;3.13;;;1.10;;
63902;SDS011;50072;50.678;13.938;2023-09-19T10:51:02;1.50;;;0.80;;
63902;SDS011;50072;50.678;13.938;2023-09-19T10:53:55;3.28;;;0.85;;
63902;SDS011;50072;50.678;13.938;2023-09-19T10:56:29;1.77;;;1.10;;
63902;SDS011;50072;50.678;13.938;2023-09-19T10:59:09;5.15;;;1.10;;
63902;SDS011;50072;50.678;13.938;2023-09-19T11:01:55;2.85;;;1.10;;
63902;SDS011;50072;50.678;13.938;2023-09-19T11:07:06;1.52;;;0.90;;
63902;SDS011;50072;50.678;13.938;2023-09-19T11:09:45;2.33;;;1.10;;
63902;SDS011;50072;50.678;13.938;2023-09-19T11:14:55;2.23;;;0.90;;
63902;SDS011;50072;50.678;13.938;2023-09-19T11:20:18;2.10;;;0.98;;
63902;SDS011;50072;50.678;13.938;2023-09-19T11:30:32;2.45;;;1.00;;
63902;SDS011;50072;50.678;13.938;2023-09-19T11:49:19;1.50;;;0.80;;
63902;SDS011;50072;50.678;13.938;2023-09-19T11:51:52;2.38;;;0.85;;
63902;SDS011;50072;50.678;13.938;2023-09-19T11:54:18;1.73;;;0.80;;
63902;SDS011;50072;50.678;13.938;2023-09-19T11:56:51;1.40;;;0.80;;
63902;SDS011;50072;50.678;13.938;2023-09-19T11:59:23;2.78;;;0.80;;
63902;SDS011;50072;50.678;13.938;2023-09-19T12:01:55;1.95;;;0.90;;
63902;SDS011;50072;50.678;13.938;2023-09-19T12:07:19;2.42;;;0.85;;
63902;SDS011;50072;50.678;13.938;2023-09-19T12:09:46;1.30;;;0.77;;
63902;SDS011;50072;50.678;13.938;2023-09-19T12:12:20;1.52;;;0.80;;
63902;SDS011;50072;50.678;13.938;2023-09-19T12:14:53;2.40;;;0.90;;
63902;SDS011;50072;50.678;13.938;2023-09-19T12:17:23;1.42;;;0.80;;
63902;SDS011;50072;50.678;13.938;2023-09-19T12:19:53;1.67;;;0.73;;
63902;SDS011;50072;50.678;13.938;2023-09-19T12:22:21;2.40;;;0.70;;
63902;SDS011;50072;50.678;13.938;2023-09-19T12:24:49;1.48;;;0.80;;
63902;SDS011;50072;50.678;13.938;2023-09-19T12:27:19;1.58;;;0.90;;
63902;SDS011;50072;50.678;13.938;2023-09-19T12:29:49;1.67;;;0.80;;
63902;SDS011;50072;50.678;13.938;2023-09-19T12:32:41;1.50;;;0.93;;
63902;SDS011;50072;50.678;13.938;2023-09-19T12:35:09;1.73;;;0.93;;
63902;SDS011;50072;50.678;13.938;2023-09-19T12:37:51;1.67;;;0.90;;
63902;SDS011;50072;50.678;13.938;2023-09-19T12:40:21;2.33;;;1.10;;
63902;SDS011;50072;50.678;13.938;2023-09-19T12:42:49;3.53;;;1.10;;
63902;SDS011;50072;50.678;13.938;2023-09-19T12:45:16;2.35;;;1.05;;
63902;SDS011;50072;50.678;13.938;2023-09-19T12:51:05;2.42;;;0.90;;
63902;SDS011;50072;50.678;13.938;2023-09-19T12:53:35;2.28;;;1.10;;
63902;SDS011;50072;50.678;13.938;2023-09-19T12:56:13;3.17;;;1.05;;
63902;SDS011;50072;50.678;13.938;2023-09-19T12:58:54;1.70;;;0.98;;
63902;SDS011;50072;50.678;13.938;2023-09-19T13:01:22;1.80;;;1.10;;
63902;SDS011;50072;50.678;13.938;2023-09-19T13:06:57;3.10;;;1.38;;
63902;SDS011;50072;50.678;13.938;2023-09-19T13:09:27;1.83;;;1.10;;
63902;SDS011;50072;50.678;13.938;2023-09-19T13:12:04;2.83;;;1.08;;
63902;SDS011;50072;50.678;13.938;2023-09-19T13:15:09;2.78;;;1.00;;
63902;SDS011;50072;50.678;13.938;2023-09-19T13:17:44;2.13;;;1.00;;
63902;SDS011;50072;50.678;13.938;2023-09-19T13:23:28;2.13;;;1.00;;
63902;SDS011;50072;50.678;13.938;2023-09-19T13:25:54;2.72;;;1.25;;
63902;SDS011;50072;50.678;13.938;2023-09-19T13:28:20;3.33;;;1.05;;
63902;SDS011;50072;50.678;13.938;2023-09-19T13:30:46;1.60;;;0.90;;
63902;SDS011;50072;50.678;13.938;2023-09-19T13:33:14;1.90;;;1.00;;
63902;SDS011;50072;50.678;13.938;2023-09-19T13:35:46;3.15;;;1.20;;
63902;SDS011;50072;50.678;13.938;2023-09-19T13:38:14;2.20;;;1.10;;
63902;SDS011;50072;50.678;13.938;2023-09-19T13:40:40;2.22;;;1.00;;
63902;SDS011;50072;50.678;13.938;2023-09-19T13:43:10;3.03;;;1.00;;
63902;SDS011;50072;50.678;13.938;2023-09-19T13:45:37;2.30;;;1.15;;
63902;SDS011;50072;50.678;13.938;2023-09-19T13:48:04;3.25;;;1.30;;
63902;SDS011;50072;50.678;13.938;2023-09-19T13:50:30;2.38;;;1.13;;
63902;SDS011;50072;50.678;13.938;2023-09-19T13:52:57;2.40;;;1.00;;
63902;SDS011;50072;50.678;13.938;2023-09-19T13:55:26;1.70;;;1.02;;
63902;SDS011;50072;50.678;13.938;2023-09-19T13:57:54;1.70;;;1.00;;
63902;SDS011;50072;50.678;13.938;2023-09-19T14:00:21;1.80;;;0.93;;
63902;SDS011;50072;50.678;13.938;2023-09-19T14:02:48;2.85;;;1.05;;
63902;SDS011;50072;50.678;13.938;2023-09-19T14:05:14;1.88;;;0.93;;
63902;SDS011;50072;50.678;13.938;2023-09-19T14:07:44;2.88;;;1.25;;
63902;SDS011;50072;50.678;13.938;2023-09-19T14:10:14;2.33;;;1.05;;
63902;SDS011;50072;50.678;13.938;2023-09-19T14:12:45;4.07;;;0.98;;
63902;SDS011;50072;50.678;13.938;2023-09-19T14:17:43;1.58;;;1.00;;
63902;SDS011;50072;50.678;13.938;2023-09-19T14:20:12;2.70;;;1.23;;
63902;SDS011;50072;50.678;13.938;2023-09-19T14:22:39;2.50;;;1.13;;
63902;SDS011;50072;50.678;13.938;2023-09-19T14:25:05;2.60;;;1.17;;
63902;SDS011;50072;50.678;13.938;2023-09-19T14:27:33;3.58;;;1.10;;
63902;SDS011;50072;50.678;13.938;2023-09-19T14:29:58;2.92;;;1.33;;
63902;SDS011;50072;50.678;13.938;2023-09-19T14:32:24;2.65;;;1.25;;
63902;SDS011;50072;50.678;13.938;2023-09-19T14:34:51;2.75;;;1.30;;
63902;SDS011;50072;50.678;13.938;2023-09-19T14:37:18;4.15;;;1.15;;
63902;SDS011;50072;50.678;13.938;2023-09-19T14:39:48;3.47;;;1.00;;
63902;SDS011;50072;50.678;13.938;2023-09-19T14:42:14;2.97;;;1.05;;
63902;SDS011;50072;50.678;13.938;2023-09-19T14:44:43;1.88;;;1.20;;
63902;SDS011;50072;50.678;13.938;2023-09-19T14:47:09;2.40;;;0.98;;
63902;SDS011;50072;50.678;13.938;2023-09-19T14:49:39;3.13;;;1.30;;
63902;SDS011;50072;50.678;13.938;2023-09-19T14:52:07;2.35;;;1.15;;
63902;SDS011;50072;50.678;13.938;2023-09-19T14:54:33;4.03;;;1.30;;
63902;SDS011;50072;50.678;13.938;2023-09-19T14:57:00;1.65;;;1.05;;
63902;SDS011;50072;50.678;13.938;2023-09-19T14:59:35;2.30;;;0.98;;
63902;SDS011;50072;50.678;13.938;2023-09-19T15:02:04;2.53;;;1.00;;
63902;SDS011;50072;50.678;13.938;2023-09-19T15:04:32;11.52;;;1.45;;
63902;SDS011;50072;50.678;13.938;2023-09-19T15:07:00;2.05;;;0.95;;
63902;SDS011;50072;50.678;13.938;2023-09-19T15:09:25;2.08;;;1.00;;
63902;SDS011;50072;50.678;13.938;2023-09-19T15:11:55;5.68;;;1.25;;
63902;SDS011;50072;50.678;13.938;2023-09-19T15:14:21;2.13;;;1.05;;
63902;SDS011;50072;50.678;13.938;2023-09-19T15:16:47;3.03;;;1.15;;
63902;SDS011;50072;50.678;13.938;2023-09-19T15:19:14;2.58;;;1.20;;
63902;SDS011;50072;50.678;13.938;2023-09-19T15:21:41;3.63;;;1.17;;
63902;SDS011;50072;50.678;13.938;2023-09-19T15:24:07;4.07;;;1.20;;
63902;SDS011;50072;50.678;13.938;2023-09-19T15:26:36;6.22;;;1.27;;
63902;SDS011;50072;50.678;13.938;2023-09-19T15:29:07;5.57;;;1.52;;
63902;SDS011;50072;50.678;13.938;2023-09-19T15:31:35;4.82;;;1.10;;
63902;SDS011;50072;50.678;13.938;2023-09-19T15:34:03;2.72;;;1.02;;
63902;SDS011;50072;50.678;13.938;2023-09-19T15:36:30;2.83;;;1.40;;
63902;SDS011;50072;50.678;13.938;2023-09-19T15:38:57;3.97;;;1.15;;
63902;SDS011;50072;50.678;13.938;2023-09-19T15:41:30;2.20;;;1.30;;
63902;SDS011;50072;50.678;13.938;2023-09-19T15:43:57;3.42;;;1.40;;
63902;SDS011;50072;50.678;13.938;2023-09-19T15:46:27;2.63;;;1.33;;
63902;SDS011;50072;50.678;13.938;2023-09-19T15:49:00;2.17;;;1.20;;
63902;SDS011;50072;50.678;13.938;2023-09-19T15:51:26;5.43;;;1.30;;
63902;SDS011;50072;50.678;13.938;2023-09-19T15:53:53;4.30;;;1.30;;
63902;SDS011;50072;50.678;13.938;2023-09-19T15:56:22;3.85;;;1.60;;
63902;SDS011;50072;50.678;13.938;2023-09-19T15:58:50;3.55;;;1.58;;
63902;SDS011;50072;50.678;13.938;2023-09-19T16:01:19;6.65;;;1.70;;
63902;SDS011;50072;50.678;13.938;2023-09-19T16:03:50;4.95;;;1.67;;
63902;SDS011;50072;50.678;13.938;2023-09-19T16:06:20;4.57;;;1.48;;
63902;SDS011;50072;50.678;13.938;2023-09-19T16:08:55;3.28;;;1.58;;
63902;SDS011;50072;50.678;13.938;2023-09-19T16:11:25;4.22;;;1.60;;
63902;SDS011;50072;50.678;13.938;2023-09-19T16:13:53;3.80;;;1.58;;
63902;SDS011;50072;50.678;13.938;2023-09-19T16:16:20;3.58;;;1.55;;
63902;SDS011;50072;50.678;13.938;2023-09-19T16:21:17;4.90;;;1.60;;
63902;SDS011;50072;50.678;13.938;2023-09-19T16:23:47;3.33;;;1.90;;
63902;SDS011;50072;50.678;13.938;2023-09-19T16:26:15;3.80;;;1.40;;
63902;SDS011;50072;50.678;13.938;2023-09-19T16:28:41;2.97;;;1.45;;
63902;SDS011;50072;50.678;13.938;2023-09-19T16:31:09;4.00;;;1.30;;
63902;SDS011;50072;50.678;13.938;2023-09-19T16:33:36;5.15;;;1.42;;
63902;SDS011;50072;50.678;13.938;2023-09-19T16:36:18;3.17;;;1.35;;
63902;SDS011;50072;50.678;13.938;2023-09-19T16:38:45;4.97;;;1.50;;
63902;SDS011;50072;50.678;13.938;2023-09-19T16:41:14;5.75;;;1.52;;
63902;SDS011;50072;50.678;13.938;2023-09-19T16:43:41;3.80;;;1.55;;
63902;SDS011;50072;50.678;13.938;2023-09-19T16:46:09;3.53;;;1.70;;